createdAt,value
2017-11-16T00:00:08.676Z,23.77
2017-11-16T00:02:37.525Z,23.30
2017-11-16T00:05:06.449Z,22.90
2017-11-16T00:07:35.276Z,24.50
2017-11-16T00:10:04.470Z,24.70
2017-11-16T00:12:33.300Z,23.70
2017-11-16T00:15:02.133Z,24.93
2017-11-16T00:17:30.974Z,24.10
2017-11-16T00:19:59.886Z,22.20
2017-11-16T00:22:28.716Z,22.63
2017-11-16T00:27:31.852Z,21.90
2017-11-16T00:30:00.692Z,21.60
2017-11-16T00:32:29.519Z,20.67
2017-11-16T00:34:58.355Z,19.13
2017-11-16T00:37:27.196Z,16.10
2017-11-16T00:39:56.031Z,17.17
2017-11-16T00:42:24.859Z,21.37
2017-11-16T00:44:53.710Z,18.97
2017-11-16T00:47:22.535Z,16.90
2017-11-16T00:49:51.371Z,18.10
2017-11-16T00:52:20.212Z,18.40
2017-11-16T00:54:49.043Z,16.80
2017-11-16T00:57:17.874Z,16.00
2017-11-16T00:59:46.723Z,17.40
2017-11-16T01:02:15.680Z,16.70
2017-11-16T01:04:44.538Z,15.30
2017-11-16T01:07:13.382Z,15.90
2017-11-16T01:09:42.574Z,18.05
2017-11-16T01:12:12.150Z,16.57
2017-11-16T01:14:41.746Z,16.80
2017-11-16T01:17:11.342Z,17.63
2017-11-16T01:19:40.964Z,17.93
2017-11-16T01:22:09.845Z,16.67
2017-11-16T01:24:38.680Z,16.97
2017-11-16T01:27:07.506Z,16.77
2017-11-16T01:29:36.348Z,15.77
2017-11-16T01:32:05.176Z,17.73
2017-11-16T01:34:34.008Z,16.60
2017-11-16T01:37:02.888Z,20.93
2017-11-16T01:39:31.776Z,17.77
2017-11-16T01:42:00.668Z,21.53
2017-11-16T01:44:29.516Z,21.13
2017-11-16T01:46:58.351Z,18.90
2017-11-16T01:49:27.246Z,19.87
2017-11-16T01:51:56.091Z,20.70
2017-11-16T01:54:25.039Z,17.47
2017-11-16T01:56:53.879Z,16.60
2017-11-16T01:59:22.755Z,18.53
2017-11-16T02:01:51.594Z,19.00
2017-11-16T02:04:20.479Z,19.60
2017-11-16T02:06:49.323Z,19.73
2017-11-16T02:09:18.159Z,17.50
2017-11-16T02:11:47.014Z,18.33
2017-11-16T02:14:15.860Z,18.23
2017-11-16T02:16:44.744Z,17.93
2017-11-16T02:19:14.134Z,18.50
2017-11-16T02:21:43.724Z,17.60
2017-11-16T02:24:13.319Z,17.07
2017-11-16T02:26:42.964Z,18.20
2017-11-16T02:29:12.549Z,17.70
2017-11-16T02:31:41.384Z,19.00
2017-11-16T02:34:10.221Z,17.70
2017-11-16T02:36:39.064Z,16.57
2017-11-16T02:39:07.912Z,18.50
2017-11-16T02:41:36.734Z,17.70
2017-11-16T02:44:05.604Z,18.30
2017-11-16T02:46:34.503Z,20.80
2017-11-16T02:49:03.392Z,20.50
2017-11-16T02:51:32.235Z,20.90
2017-11-16T02:54:01.067Z,19.27
2017-11-16T02:56:29.904Z,19.40
2017-11-16T02:58:58.762Z,17.97
2017-11-16T03:01:27.597Z,16.33
2017-11-16T03:03:56.431Z,18.50
2017-11-16T03:06:25.325Z,18.40
2017-11-16T03:08:54.220Z,16.43
2017-11-16T03:11:23.055Z,16.37
2017-11-16T03:13:52.040Z,16.63
2017-11-16T03:16:20.862Z,17.60
2017-11-16T03:18:49.692Z,15.73
2017-11-16T03:21:18.569Z,15.27
2017-11-16T03:23:47.396Z,15.40
2017-11-16T03:26:16.371Z,17.10
2017-11-16T03:28:45.613Z,18.87
2017-11-16T03:31:15.251Z,16.90
2017-11-16T03:33:44.872Z,16.20
2017-11-16T03:36:14.470Z,14.43
2017-11-16T03:38:44.033Z,17.43
2017-11-16T03:41:13.069Z,13.87
2017-11-16T03:43:41.969Z,16.57
2017-11-16T03:46:10.848Z,16.40
2017-11-16T03:48:39.687Z,15.17
2017-11-16T03:51:08.557Z,16.90
2017-11-16T03:53:37.391Z,14.70
2017-11-16T03:56:06.319Z,17.20
2017-11-16T03:58:35.151Z,15.50
2017-11-16T04:01:04.082Z,16.00
2017-11-16T04:03:32.955Z,16.93
2017-11-16T04:06:01.799Z,17.93
2017-11-16T04:08:30.635Z,15.90
2017-11-16T04:10:59.488Z,15.07
2017-11-16T04:13:28.331Z,14.70
2017-11-16T04:15:57.240Z,14.23
2017-11-16T04:18:26.097Z,13.47
2017-11-16T04:20:55.033Z,13.30
2017-11-16T04:23:23.876Z,14.23
2017-11-16T04:25:52.724Z,15.30
2017-11-16T04:28:21.555Z,14.50
2017-11-16T04:30:50.484Z,14.00
2017-11-16T04:33:19.328Z,13.87
2017-11-16T04:35:48.165Z,13.53
2017-11-16T04:38:17.160Z,14.63
2017-11-16T04:40:46.747Z,14.07
2017-11-16T04:43:16.368Z,14.93
2017-11-16T04:45:45.976Z,15.40
2017-11-16T04:48:15.838Z,14.60
2017-11-16T04:50:44.659Z,14.23
2017-11-16T04:53:13.496Z,14.97
2017-11-16T04:55:42.344Z,15.60
2017-11-16T04:58:11.176Z,15.50
2017-11-16T05:00:40.011Z,14.20
2017-11-16T05:03:08.943Z,13.77
2017-11-16T05:05:37.781Z,16.23
2017-11-16T05:08:06.611Z,14.77
2017-11-16T05:10:35.507Z,15.50
2017-11-16T05:13:04.503Z,17.17
2017-11-16T05:15:33.330Z,14.53
2017-11-16T05:18:02.167Z,13.87
2017-11-16T05:20:31.071Z,17.17
2017-11-16T05:22:59.899Z,16.73
2017-11-16T05:25:28.750Z,15.57
2017-11-16T05:27:57.580Z,15.40
2017-11-16T05:30:26.406Z,13.97
2017-11-16T05:32:55.319Z,15.03
2017-11-16T05:35:24.161Z,12.60
2017-11-16T05:37:52.998Z,16.37
2017-11-16T05:40:21.901Z,15.37
2017-11-16T05:42:50.737Z,14.37
2017-11-16T05:45:19.593Z,13.10
2017-11-16T05:47:48.873Z,14.70
2017-11-16T05:50:18.448Z,14.60
2017-11-16T05:52:48.036Z,13.60
2017-11-16T05:55:17.636Z,12.53
2017-11-16T05:57:47.216Z,14.60
2017-11-16T06:00:16.051Z,14.03
2017-11-16T06:02:44.891Z,13.77
2017-11-16T06:05:13.742Z,15.57
2017-11-16T06:07:42.584Z,15.43
2017-11-16T06:10:11.433Z,14.27
2017-11-16T06:12:40.343Z,15.60
2017-11-16T06:15:09.241Z,15.73
2017-11-16T06:17:38.087Z,16.57
2017-11-16T06:20:06.923Z,14.70
2017-11-16T06:22:35.777Z,15.47
2017-11-16T06:25:05.076Z,14.40
2017-11-16T06:27:34.001Z,15.03
2017-11-16T06:30:02.933Z,15.17
2017-11-16T06:32:31.774Z,13.70
2017-11-16T06:35:00.598Z,13.23
2017-11-16T06:37:29.432Z,13.67
2017-11-16T06:39:58.629Z,14.40
2017-11-16T06:42:27.468Z,13.23
2017-11-16T06:44:56.304Z,13.67
2017-11-16T06:47:25.149Z,14.03
2017-11-16T06:49:53.982Z,14.83
2017-11-16T06:52:22.936Z,15.03
2017-11-16T06:54:51.821Z,15.30
2017-11-16T06:57:20.652Z,14.00
2017-11-16T06:59:50.072Z,12.83
2017-11-16T07:02:19.671Z,11.93
2017-11-16T07:04:49.248Z,13.10
2017-11-16T07:07:18.984Z,11.43
2017-11-16T07:09:48.563Z,10.73
2017-11-16T07:12:17.404Z,10.53
2017-11-16T07:14:46.246Z,11.60
2017-11-16T07:17:15.077Z,11.37
2017-11-16T07:19:43.911Z,11.07
2017-11-16T07:22:12.764Z,11.00
2017-11-16T07:24:41.604Z,12.10
2017-11-16T07:27:10.439Z,13.10
2017-11-16T07:29:39.455Z,12.40
2017-11-16T07:32:08.283Z,12.40
2017-11-16T07:34:37.111Z,10.77
2017-11-16T07:37:05.950Z,8.93
2017-11-16T07:39:34.788Z,11.47
2017-11-16T07:42:03.618Z,10.20
2017-11-16T07:44:32.484Z,11.23
2017-11-16T07:47:01.309Z,12.10
2017-11-16T07:49:30.147Z,12.00
2017-11-16T07:51:58.993Z,11.40
2017-11-16T07:54:27.938Z,11.50
2017-11-16T07:56:56.764Z,12.17
2017-11-16T07:59:25.606Z,11.50
2017-11-16T08:01:54.440Z,12.70
2017-11-16T08:04:23.268Z,13.47
2017-11-16T08:06:52.106Z,12.37
2017-11-16T08:09:21.561Z,13.57
2017-11-16T08:11:51.148Z,12.47
2017-11-16T08:14:20.831Z,13.57
2017-11-16T08:16:50.409Z,10.93
2017-11-16T08:19:20.056Z,13.17
2017-11-16T08:21:49.646Z,13.47
2017-11-16T08:24:18.494Z,11.50
2017-11-16T08:26:47.327Z,12.10
2017-11-16T08:29:16.219Z,11.00
2017-11-16T08:31:45.047Z,13.57
2017-11-16T08:34:13.899Z,12.10
2017-11-16T08:36:42.749Z,12.73
2017-11-16T08:39:11.579Z,12.83
2017-11-16T08:41:40.471Z,11.80
2017-11-16T08:44:09.317Z,11.77
2017-11-16T08:46:38.252Z,12.00
2017-11-16T08:49:07.097Z,11.90
2017-11-16T08:51:35.944Z,12.43
2017-11-16T08:54:04.772Z,12.50
2017-11-16T08:56:33.608Z,12.97
2017-11-16T08:59:02.452Z,13.37
2017-11-16T09:01:31.296Z,13.37
2017-11-16T09:04:00.128Z,12.90
2017-11-16T09:06:28.978Z,12.90
2017-11-16T09:08:57.869Z,14.33
2017-11-16T09:11:26.708Z,12.30
2017-11-16T09:13:55.551Z,12.53
2017-11-16T09:16:24.389Z,12.53
2017-11-16T09:18:53.228Z,13.23
2017-11-16T09:21:22.083Z,11.73
2017-11-16T09:23:51.715Z,11.90
2017-11-16T09:26:21.303Z,11.67
2017-11-16T09:28:50.891Z,12.00
2017-11-16T09:31:20.811Z,12.00
2017-11-16T09:33:50.395Z,11.40
2017-11-16T09:36:19.356Z,12.37
2017-11-16T09:38:48.238Z,11.00
2017-11-16T09:41:17.063Z,11.67
2017-11-16T09:43:45.913Z,11.90
2017-11-16T09:46:14.750Z,10.50
2017-11-16T09:48:43.587Z,11.87
2017-11-16T09:51:12.513Z,9.67
2017-11-16T09:53:41.350Z,11.13
2017-11-16T09:56:10.184Z,10.80
2017-11-16T09:58:39.028Z,9.47
2017-11-16T10:01:07.878Z,11.00
2017-11-16T10:03:36.739Z,10.53
2017-11-16T10:06:05.589Z,10.80
2017-11-16T10:08:34.424Z,10.07
2017-11-16T10:11:03.304Z,10.83
2017-11-16T10:13:32.144Z,9.90
2017-11-16T10:16:00.973Z,8.53
2017-11-16T10:18:29.904Z,11.37
2017-11-16T10:20:58.812Z,10.90
2017-11-16T10:23:27.641Z,8.90
2017-11-16T10:25:56.552Z,9.20
2017-11-16T10:28:25.444Z,10.13
2017-11-16T10:30:54.270Z,9.63
2017-11-16T10:33:23.109Z,10.30
2017-11-16T10:35:52.732Z,10.03
2017-11-16T10:38:22.313Z,9.17
2017-11-16T10:40:51.943Z,9.87
2017-11-16T10:43:21.515Z,8.80
2017-11-16T10:45:51.091Z,9.27
2017-11-16T10:48:19.958Z,9.97
2017-11-16T10:50:49.204Z,9.50
2017-11-16T10:53:18.055Z,9.90
2017-11-16T10:55:46.909Z,9.30
2017-11-16T10:58:15.734Z,10.07
2017-11-16T11:00:44.620Z,10.13
2017-11-16T11:03:13.747Z,9.70
2017-11-16T11:05:42.611Z,8.80
2017-11-16T11:08:11.439Z,9.20
2017-11-16T11:10:40.376Z,8.70
2017-11-16T11:13:09.270Z,9.83
2017-11-16T11:15:38.107Z,9.43
2017-11-16T11:18:06.989Z,8.77
2017-11-16T11:20:35.820Z,9.70
2017-11-16T11:23:04.740Z,8.70
2017-11-16T11:25:33.587Z,9.13
2017-11-16T11:28:02.538Z,9.70
2017-11-16T11:30:31.367Z,9.30
2017-11-16T11:33:00.219Z,9.17
2017-11-16T11:35:29.089Z,8.83
2017-11-16T11:37:57.915Z,10.63
2017-11-16T11:40:26.755Z,9.27
2017-11-16T11:42:55.589Z,9.03
2017-11-16T11:45:24.425Z,10.30
2017-11-16T11:47:53.299Z,8.30
2017-11-16T11:50:22.867Z,8.70
2017-11-16T11:52:52.572Z,10.10
2017-11-16T11:55:22.169Z,9.53
2017-11-16T11:57:51.743Z,9.80
2017-11-16T12:00:20.571Z,9.40
2017-11-16T12:02:49.413Z,9.23
2017-11-16T12:05:18.336Z,9.90
2017-11-16T12:07:47.160Z,9.13
2017-11-16T12:10:16.018Z,8.87
2017-11-16T12:12:44.844Z,9.80
2017-11-16T12:15:13.683Z,11.00
2017-11-16T12:17:42.589Z,9.27
2017-11-16T12:20:11.449Z,9.37
2017-11-16T12:22:40.279Z,9.83
2017-11-16T12:25:09.115Z,9.43
2017-11-16T12:27:37.940Z,9.17
2017-11-16T12:30:06.786Z,10.33
2017-11-16T12:32:35.640Z,10.77
2017-11-16T12:35:04.491Z,9.20
2017-11-16T12:37:33.323Z,9.90
2017-11-16T12:40:02.163Z,8.63
2017-11-16T12:42:31.013Z,9.97
2017-11-16T12:44:59.849Z,8.63
2017-11-16T12:47:28.777Z,8.90
2017-11-16T12:49:57.605Z,9.60
2017-11-16T12:52:26.450Z,10.20
2017-11-16T12:54:55.349Z,11.23
2017-11-16T12:57:24.174Z,8.90
2017-11-16T12:59:53.762Z,10.00
2017-11-16T13:02:23.412Z,10.00
2017-11-16T13:04:52.993Z,10.37
2017-11-16T13:07:22.570Z,10.60
2017-11-16T13:09:52.172Z,8.93
2017-11-16T13:12:21.069Z,8.00
2017-11-16T13:14:49.956Z,8.37
2017-11-16T13:17:18.804Z,12.70
2017-11-16T13:19:47.636Z,13.57
2017-11-16T13:22:16.476Z,9.50
2017-11-16T13:24:45.334Z,9.73
2017-11-16T13:27:14.160Z,9.33
2017-11-16T13:29:43.000Z,8.10
2017-11-16T13:32:11.848Z,9.00
2017-11-16T13:34:40.683Z,9.50
2017-11-16T13:37:09.515Z,12.10
2017-11-16T13:39:38.363Z,13.73
2017-11-16T13:42:07.188Z,9.50
2017-11-16T13:44:36.029Z,9.50
2017-11-16T13:47:04.923Z,8.57
2017-11-16T13:49:33.757Z,8.70
2017-11-16T13:52:02.636Z,9.00
2017-11-16T13:54:31.496Z,9.43
2017-11-16T13:57:00.329Z,9.67
2017-11-16T13:59:29.178Z,10.70
2017-11-16T14:01:58.015Z,9.47
2017-11-16T14:04:26.855Z,9.70
2017-11-16T14:06:55.696Z,10.07
2017-11-16T14:09:24.820Z,8.75
2017-11-16T14:11:54.449Z,9.57
2017-11-16T14:14:24.059Z,9.00
2017-11-16T14:16:53.676Z,9.63
2017-11-16T14:19:23.241Z,9.30
2017-11-16T14:21:52.071Z,9.10
2017-11-16T14:24:20.916Z,9.80
2017-11-16T14:26:49.777Z,9.20
2017-11-16T14:29:18.638Z,10.30
2017-11-16T14:31:47.494Z,8.80
2017-11-16T14:34:16.315Z,9.70
2017-11-16T14:36:45.151Z,9.77
2017-11-16T14:39:14.112Z,10.10
2017-11-16T14:41:43.012Z,9.43
2017-11-16T14:44:11.843Z,9.40
2017-11-16T14:46:40.693Z,11.17
2017-11-16T14:49:09.528Z,10.37
2017-11-16T14:51:38.356Z,11.10
2017-11-16T14:54:07.198Z,9.70
2017-11-16T14:56:36.128Z,11.60
2017-11-16T14:59:04.963Z,14.07
2017-11-16T15:01:33.808Z,10.30
2017-11-16T15:04:02.643Z,11.73
2017-11-16T15:06:31.481Z,10.63
2017-11-16T15:09:00.318Z,12.57
2017-11-16T15:11:29.157Z,12.03
2017-11-16T15:13:58.062Z,11.33
2017-11-16T15:16:26.961Z,12.80
2017-11-16T15:18:55.788Z,11.07
2017-11-16T15:21:25.366Z,12.40
2017-11-16T15:23:54.976Z,10.60
2017-11-16T15:26:24.582Z,12.17
2017-11-16T15:28:54.168Z,12.07
2017-11-16T15:31:23.780Z,10.07
2017-11-16T15:33:52.616Z,11.87
2017-11-16T15:36:21.448Z,10.83
2017-11-16T15:38:50.347Z,12.60
2017-11-16T15:41:19.362Z,12.87
2017-11-16T15:43:48.204Z,11.53
2017-11-16T15:46:17.052Z,11.17
2017-11-16T15:48:45.889Z,11.60
2017-11-16T15:51:14.825Z,13.03
2017-11-16T15:53:43.673Z,14.00
2017-11-16T15:56:12.602Z,12.27
2017-11-16T15:58:41.447Z,14.00
2017-11-16T16:01:10.379Z,13.10
2017-11-16T16:03:39.207Z,11.10
2017-11-16T16:06:08.042Z,11.10
2017-11-16T16:08:36.887Z,11.60
2017-11-16T16:11:05.732Z,12.03
2017-11-16T16:13:34.564Z,13.03
2017-11-16T16:16:03.417Z,11.17
2017-11-16T16:18:32.244Z,12.33
2017-11-16T16:21:01.084Z,11.73
2017-11-16T16:23:29.988Z,11.50
2017-11-16T16:25:58.864Z,12.10
2017-11-16T16:28:27.700Z,12.20
2017-11-16T16:30:56.656Z,12.68
2017-11-16T16:33:26.299Z,12.60
2017-11-16T16:35:55.880Z,11.40
2017-11-16T16:38:25.455Z,12.17
2017-11-16T16:40:55.110Z,13.50
2017-11-16T16:43:24.747Z,12.10
2017-11-16T16:45:53.743Z,14.30
2017-11-16T16:48:22.572Z,14.00
2017-11-16T16:50:51.421Z,12.10
2017-11-16T16:53:20.253Z,43.83
2017-11-16T16:55:49.095Z,19.40
2017-11-16T16:58:18.098Z,15.93
2017-11-16T17:00:46.955Z,13.77
2017-11-16T17:03:15.791Z,12.60
2017-11-16T17:05:44.959Z,12.90
2017-11-16T17:08:13.792Z,12.97
2017-11-16T17:10:42.619Z,17.90
2017-11-16T17:13:11.468Z,13.60
2017-11-16T17:15:40.304Z,14.43
2017-11-16T17:18:09.153Z,15.80
2017-11-16T17:20:38.000Z,14.10
2017-11-16T17:23:06.839Z,15.07
2017-11-16T17:25:35.678Z,19.27
2017-11-16T17:28:04.584Z,17.57
2017-11-16T17:30:33.554Z,16.03
2017-11-16T17:33:02.398Z,18.37
2017-11-16T17:35:31.202Z,14.10
2017-11-16T17:38:00.043Z,16.60
2017-11-16T17:40:28.988Z,14.97
2017-11-16T17:42:57.884Z,19.10
2017-11-16T17:45:27.461Z,16.27
2017-11-16T17:47:57.091Z,17.23
2017-11-16T17:50:26.677Z,15.90
2017-11-16T17:52:56.251Z,18.07
2017-11-16T17:55:25.913Z,18.53
2017-11-16T17:57:54.747Z,17.93
2017-11-16T18:00:23.588Z,19.70
2017-11-16T18:02:52.480Z,20.47
2017-11-16T18:05:22.171Z,19.90
2017-11-16T18:07:51.094Z,18.27
2017-11-16T18:10:19.940Z,16.73
2017-11-16T18:12:48.793Z,18.07
2017-11-16T18:15:17.651Z,17.70
2017-11-16T18:17:46.503Z,17.00
2017-11-16T18:20:15.332Z,17.47
2017-11-16T18:22:44.231Z,16.03
2017-11-16T18:25:13.119Z,17.07
2017-11-16T18:27:41.955Z,19.63
2017-11-16T18:30:10.789Z,17.33
2017-11-16T18:32:39.635Z,17.93
2017-11-16T18:35:08.472Z,16.90
2017-11-16T18:37:37.518Z,16.07
2017-11-16T18:40:06.365Z,19.17
2017-11-16T18:42:35.205Z,16.10
2017-11-16T18:45:04.039Z,18.80
2017-11-16T18:47:32.930Z,16.87
2017-11-16T18:50:01.824Z,16.03
2017-11-16T18:52:30.728Z,22.60
2017-11-16T18:54:59.612Z,15.03
2017-11-16T18:57:28.551Z,17.30
2017-11-16T18:59:58.212Z,18.03
2017-11-16T19:02:27.818Z,17.37
2017-11-16T19:04:57.391Z,19.00
2017-11-16T19:07:26.979Z,22.03
2017-11-16T19:09:55.835Z,15.27
2017-11-16T19:12:24.669Z,17.60
2017-11-16T19:14:53.525Z,17.70
2017-11-16T19:17:22.400Z,57.43
2017-11-16T19:19:51.255Z,17.40
2017-11-16T19:22:20.088Z,17.77
2017-11-16T19:24:48.992Z,17.17
2017-11-16T19:27:17.818Z,15.33
2017-11-16T19:29:46.654Z,21.83
2017-11-16T19:32:15.531Z,16.30
2017-11-16T19:34:44.377Z,18.03
2017-11-16T19:37:13.272Z,15.30
2017-11-16T19:39:42.137Z,19.60
2017-11-16T19:42:11.133Z,17.43
2017-11-16T19:44:39.982Z,18.20
2017-11-16T19:47:08.981Z,16.10
2017-11-16T19:49:37.807Z,17.03
2017-11-16T19:52:06.736Z,18.90
2017-11-16T19:54:35.631Z,16.60
2017-11-16T19:57:04.435Z,16.20
2017-11-16T19:59:33.273Z,16.60
2017-11-16T20:02:02.131Z,19.37
2017-11-16T20:04:31.067Z,17.13
2017-11-16T20:06:59.913Z,17.30
2017-11-16T20:09:29.639Z,16.00
2017-11-16T20:11:59.227Z,17.43
2017-11-16T20:14:28.841Z,17.03
2017-11-16T20:16:58.444Z,18.93
2017-11-16T20:19:28.030Z,17.17
2017-11-16T20:21:56.969Z,17.63
2017-11-16T20:24:25.805Z,15.57
2017-11-16T20:26:54.645Z,16.13
2017-11-16T20:29:23.515Z,16.47
2017-11-16T20:31:52.406Z,16.30
2017-11-16T20:34:21.252Z,17.90
2017-11-16T20:36:50.922Z,17.10
2017-11-16T20:39:20.555Z,16.90
2017-11-16T20:41:55.189Z,16.10
2017-11-16T20:44:25.844Z,16.70
2017-11-16T20:47:00.492Z,18.30
2017-11-16T20:49:31.996Z,20.50
2017-11-16T20:52:00.884Z,16.93
2017-11-16T20:54:31.978Z,17.73
2017-11-16T20:57:00.826Z,17.97
2017-11-16T20:59:30.404Z,18.03
2017-11-16T21:02:00.083Z,19.50
2017-11-16T21:04:29.693Z,20.20
2017-11-16T21:06:59.296Z,19.70
2017-11-16T21:09:28.880Z,20.03
2017-11-16T21:11:57.727Z,17.70
2017-11-16T21:14:26.571Z,20.67
2017-11-16T21:16:55.423Z,19.23
2017-11-16T21:19:24.267Z,23.60
2017-11-16T21:21:53.112Z,22.40
2017-11-16T21:24:21.969Z,20.33
2017-11-16T21:26:50.853Z,20.53
2017-11-16T21:29:19.680Z,21.67
2017-11-16T21:31:48.546Z,22.03
2017-11-16T21:34:17.389Z,21.50
2017-11-16T21:36:46.302Z,20.40
2017-11-16T21:39:15.146Z,22.10
2017-11-16T21:41:43.993Z,19.60
2017-11-16T21:44:12.859Z,21.90
2017-11-16T21:46:41.759Z,19.97
2017-11-16T21:49:10.602Z,23.13
2017-11-16T21:51:39.456Z,26.73
2017-11-16T21:54:08.297Z,32.20
2017-11-16T21:56:37.115Z,29.70
2017-11-16T21:59:06.007Z,23.93
2017-11-16T22:01:34.851Z,18.93
2017-11-16T22:04:03.697Z,21.63
2017-11-16T22:06:33.396Z,23.00
2017-11-16T22:09:02.256Z,21.60
2017-11-16T22:11:31.831Z,20.70
2017-11-16T22:14:01.510Z,20.67
2017-11-16T22:16:31.117Z,20.47
2017-11-16T22:19:00.696Z,23.57
2017-11-16T22:21:30.275Z,24.37
2017-11-16T22:23:59.119Z,22.93
2017-11-16T22:26:28.007Z,22.27
2017-11-16T22:28:56.868Z,21.90
2017-11-16T22:31:25.791Z,21.03
2017-11-16T22:33:54.628Z,20.70
2017-11-16T22:36:23.465Z,22.07
2017-11-16T22:38:52.315Z,21.80
2017-11-16T22:41:21.147Z,22.77
2017-11-16T22:43:50.043Z,21.73
2017-11-16T22:46:18.893Z,21.00
2017-11-16T22:48:47.732Z,21.53
2017-11-16T22:51:16.563Z,20.97
2017-11-16T22:53:45.416Z,23.33
2017-11-16T22:56:14.265Z,20.10
2017-11-16T22:58:43.190Z,22.33
2017-11-16T23:01:12.034Z,21.20
2017-11-16T23:03:40.869Z,21.63
2017-11-16T23:06:09.703Z,22.17
2017-11-16T23:08:38.547Z,24.63
2017-11-16T23:11:07.378Z,23.20
2017-11-16T23:13:36.212Z,26.27
2017-11-16T23:16:05.052Z,25.10
2017-11-16T23:18:34.009Z,23.43
2017-11-16T23:21:03.512Z,23.30
2017-11-16T23:23:33.100Z,23.67
2017-11-16T23:26:02.672Z,24.63
2017-11-16T23:28:32.253Z,25.20
2017-11-16T23:31:01.850Z,25.00
2017-11-16T23:33:30.724Z,23.27
2017-11-16T23:35:59.616Z,25.07
2017-11-16T23:38:28.515Z,25.60
2017-11-16T23:40:57.421Z,24.53
2017-11-16T23:43:26.260Z,25.07
2017-11-16T23:45:55.107Z,24.57
2017-11-16T23:48:23.940Z,24.70
2017-11-16T23:50:52.767Z,23.97
2017-11-16T23:53:21.899Z,25.07
2017-11-16T23:55:50.731Z,24.50
2017-11-16T23:58:19.565Z,26.60
